sensor_id;sensor_type;location;lat;lon;timestamp;pressure;altitude;pressure_sealevel;temperature;humidity
15263;BME280;7733;51.554;13.590;2023-04-07T00:01:46;100846.88;;;4.40;58.93
15263;BME280;7733;51.554;13.590;2023-04-07T00:04:11;100848.16;;;4.62;57.41
15263;BME280;7733;51.554;13.590;2023-04-07T00:06:37;100841.56;;;4.33;58.35
15263;BME280;7733;51.554;13.590;2023-04-07T00:09:03;100841.13;;;4.56;57.44
15263;BME280;7733;51.554;13.590;2023-04-07T00:11:29;100846.31;;;4.56;57.68
15263;BME280;7733;51.554;13.590;2023-04-07T00:13:54;100833.94;;;4.42;57.91
15263;BME280;7733;51.554;13.590;2023-04-07T00:16:20;100835.44;;;4.29;58.06
15263;BME280;7733;51.554;13.590;2023-04-07T00:18:46;100832.19;;;3.95;59.79
15263;BME280;7733;51.554;13.590;2023-04-07T00:21:11;100838.88;;;4.28;59.00
15263;BME280;7733;51.554;13.590;2023-04-07T00:23:37;100835.59;;;4.38;58.70
15263;BME280;7733;51.554;13.590;2023-04-07T00:26:03;100836.38;;;4.33;57.98
15263;BME280;7733;51.554;13.590;2023-04-07T00:28:29;100833.94;;;4.42;57.55
15263;BME280;7733;51.554;13.590;2023-04-07T00:30:55;100836.09;;;4.19;58.83
15263;BME280;7733;51.554;13.590;2023-04-07T00:33:21;100833.81;;;4.36;58.34
15263;BME280;7733;51.554;13.590;2023-04-07T00:35:47;100837.16;;;4.28;59.07
15263;BME280;7733;51.554;13.590;2023-04-07T00:38:12;100828.47;;;4.26;58.29
15263;BME280;7733;51.554;13.590;2023-04-07T00:40:38;100833.44;;;4.16;59.52
15263;BME280;7733;51.554;13.590;2023-04-07T00:43:04;100825.75;;;4.20;58.65
15263;BME280;7733;51.554;13.590;2023-04-07T00:45:30;100829.34;;;4.27;58.49
15263;BME280;7733;51.554;13.590;2023-04-07T00:47:57;100832.66;;;4.20;59.58
15263;BME280;7733;51.554;13.590;2023-04-07T00:50:23;100828.41;;;4.23;59.17
15263;BME280;7733;51.554;13.590;2023-04-07T00:52:49;100826.81;;;3.86;60.70
15263;BME280;7733;51.554;13.590;2023-04-07T00:55:16;100828.25;;;3.72;61.35
15263;BME280;7733;51.554;13.590;2023-04-07T00:57:41;100819.75;;;3.79;61.82
15263;BME280;7733;51.554;13.590;2023-04-07T01:00:08;100812.59;;;3.67;62.00
15263;BME280;7733;51.554;13.590;2023-04-07T01:02:59;100816.09;;;3.70;62.25
15263;BME280;7733;51.554;13.590;2023-04-07T01:05:52;100811.25;;;3.86;61.46
15263;BME280;7733;51.554;13.590;2023-04-07T01:14:06;100801.91;;;3.96;60.94
15263;BME280;7733;51.554;13.590;2023-04-07T01:16:56;100801.84;;;3.91;60.36
15263;BME280;7733;51.554;13.590;2023-04-07T01:19:38;100804.88;;;3.71;61.20
15263;BME280;7733;51.554;13.590;2023-04-07T01:22:12;100805.75;;;3.71;62.38
15263;BME280;7733;51.554;13.590;2023-04-07T01:25:05;100809.75;;;3.16;64.45
15263;BME280;7733;51.554;13.590;2023-04-07T01:30:55;100808.91;;;4.00;59.82
15263;BME280;7733;51.554;13.590;2023-04-07T01:33:24;100807.31;;;3.63;62.01
15263;BME280;7733;51.554;13.590;2023-04-07T01:35:53;100795.75;;;3.89;61.23
15263;BME280;7733;51.554;13.590;2023-04-07T01:38:21;100797.41;;;3.86;61.55
15263;BME280;7733;51.554;13.590;2023-04-07T01:40:48;100799.34;;;3.97;60.34
15263;BME280;7733;51.554;13.590;2023-04-07T01:43:15;100788.16;;;4.00;60.31
15263;BME280;7733;51.554;13.590;2023-04-07T01:45:43;100792.25;;;3.87;60.27
15263;BME280;7733;51.554;13.590;2023-04-07T01:48:10;100784.41;;;3.84;60.11
15263;BME280;7733;51.554;13.590;2023-04-07T01:50:37;100791.03;;;3.29;63.30
15263;BME280;7733;51.554;13.590;2023-04-07T01:53:04;100787.28;;;3.56;61.85
15263;BME280;7733;51.554;13.590;2023-04-07T01:55:31;100777.13;;;3.66;61.76
15263;BME280;7733;51.554;13.590;2023-04-07T01:57:57;100778.53;;;3.94;59.78
15263;BME280;7733;51.554;13.590;2023-04-07T02:00:23;100784.44;;;3.44;62.09
15263;BME280;7733;51.554;13.590;2023-04-07T02:02:54;100785.63;;;3.20;62.76
15263;BME280;7733;51.554;13.590;2023-04-07T02:05:25;100784.50;;;3.47;61.96
15263;BME280;7733;51.554;13.590;2023-04-07T02:08:02;100779.50;;;3.56;61.18
15263;BME280;7733;51.554;13.590;2023-04-07T02:10:34;100777.09;;;3.65;60.38
15263;BME280;7733;51.554;13.590;2023-04-07T02:13:04;100779.63;;;3.60;60.43
15263;BME280;7733;51.554;13.590;2023-04-07T02:15:31;100779.06;;;3.78;60.10
15263;BME280;7733;51.554;13.590;2023-04-07T02:17:59;100771.44;;;3.42;61.74
15263;BME280;7733;51.554;13.590;2023-04-07T02:20:28;100774.06;;;3.04;63.45
15263;BME280;7733;51.554;13.590;2023-04-07T02:22:55;100772.75;;;3.64;61.13
15263;BME280;7733;51.554;13.590;2023-04-07T02:25:29;100771.94;;;3.24;62.22
15263;BME280;7733;51.554;13.590;2023-04-07T02:27:58;100771.63;;;3.51;61.18
15263;BME280;7733;51.554;13.590;2023-04-07T02:30:25;100769.38;;;3.68;60.54
15263;BME280;7733;51.554;13.590;2023-04-07T02:32:52;100766.06;;;3.75;60.83
15263;BME280;7733;51.554;13.590;2023-04-07T02:35:17;100761.06;;;3.84;59.94
15263;BME280;7733;51.554;13.590;2023-04-07T02:37:45;100770.03;;;3.17;64.39
15263;BME280;7733;51.554;13.590;2023-04-07T02:40:11;100769.88;;;2.73;66.28
15263;BME280;7733;51.554;13.590;2023-04-07T02:42:37;100768.97;;;3.08;64.93
15263;BME280;7733;51.554;13.590;2023-04-07T02:45:04;100762.66;;;3.37;64.20
15263;BME280;7733;51.554;13.590;2023-04-07T02:47:31;100760.31;;;3.48;63.40
15263;BME280;7733;51.554;13.590;2023-04-07T02:49:57;100767.53;;;3.61;62.58
15263;BME280;7733;51.554;13.590;2023-04-07T02:52:22;100766.00;;;3.72;61.96
15263;BME280;7733;51.554;13.590;2023-04-07T02:54:48;100768.72;;;3.38;62.92
15263;BME280;7733;51.554;13.590;2023-04-07T02:57:14;100763.81;;;2.71;66.44
15263;BME280;7733;51.554;13.590;2023-04-07T02:59:40;100770.88;;;2.09;70.14
15263;BME280;7733;51.554;13.590;2023-04-07T03:02:06;100768.28;;;2.09;70.85
15263;BME280;7733;51.554;13.590;2023-04-07T03:04:32;100754.94;;;2.62;68.05
15263;BME280;7733;51.554;13.590;2023-04-07T03:06:58;100763.94;;;2.78;67.28
15263;BME280;7733;51.554;13.590;2023-04-07T03:09:25;100758.50;;;3.03;65.12
15263;BME280;7733;51.554;13.590;2023-04-07T03:11:51;100753.97;;;3.33;64.45
15263;BME280;7733;51.554;13.590;2023-04-07T03:14:16;100755.06;;;3.45;63.10
15263;BME280;7733;51.554;13.590;2023-04-07T03:16:42;100757.50;;;3.37;63.68
15263;BME280;7733;51.554;13.590;2023-04-07T03:19:08;100748.44;;;3.59;61.86
15263;BME280;7733;51.554;13.590;2023-04-07T03:21:37;100752.13;;;3.70;61.24
15263;BME280;7733;51.554;13.590;2023-04-07T03:24:04;100752.09;;;3.69;61.42
15263;BME280;7733;51.554;13.590;2023-04-07T03:26:30;100755.44;;;3.63;61.04
15263;BME280;7733;51.554;13.590;2023-04-07T03:28:56;100749.41;;;3.62;61.19
15263;BME280;7733;51.554;13.590;2023-04-07T03:31:22;100747.16;;;3.39;62.37
15263;BME280;7733;51.554;13.590;2023-04-07T03:33:48;100747.16;;;3.39;63.22
15263;BME280;7733;51.554;13.590;2023-04-07T03:36:15;100739.41;;;3.40;62.75
15263;BME280;7733;51.554;13.590;2023-04-07T03:38:41;100747.53;;;3.16;64.82
15263;BME280;7733;51.554;13.590;2023-04-07T03:41:07;100746.38;;;2.64;66.50
15263;BME280;7733;51.554;13.590;2023-04-07T03:43:33;100745.13;;;2.85;66.43
15263;BME280;7733;51.554;13.590;2023-04-07T03:45:59;100733.69;;;2.77;66.92
15263;BME280;7733;51.554;13.590;2023-04-07T03:48:25;100739.25;;;2.56;68.71
15263;BME280;7733;51.554;13.590;2023-04-07T03:50:50;100738.38;;;2.55;68.54
15263;BME280;7733;51.554;13.590;2023-04-07T03:53:16;100734.19;;;2.98;66.74
15263;BME280;7733;51.554;13.590;2023-04-07T03:55:44;100735.59;;;2.84;67.08
15263;BME280;7733;51.554;13.590;2023-04-07T03:58:10;100747.31;;;2.68;67.79
15263;BME280;7733;51.554;13.590;2023-04-07T04:00:36;100732.09;;;2.82;67.29
15263;BME280;7733;51.554;13.590;2023-04-07T04:03:02;100734.41;;;2.69;67.67
15263;BME280;7733;51.554;13.590;2023-04-07T04:05:28;100740.38;;;2.31;68.90
15263;BME280;7733;51.554;13.590;2023-04-07T04:07:54;100739.53;;;2.32;68.87
15263;BME280;7733;51.554;13.590;2023-04-07T04:10:20;100748.34;;;2.05;70.08
15263;BME280;7733;51.554;13.590;2023-04-07T04:12:47;100748.69;;;2.19;69.84
15263;BME280;7733;51.554;13.590;2023-04-07T04:15:14;100742.63;;;2.53;68.03
15263;BME280;7733;51.554;13.590;2023-04-07T04:17:40;100751.84;;;2.07;69.67
15263;BME280;7733;51.554;13.590;2023-04-07T04:20:07;100745.31;;;2.22;69.92
15263;BME280;7733;51.554;13.590;2023-04-07T04:22:34;100745.06;;;2.82;66.47
15263;BME280;7733;51.554;13.590;2023-04-07T04:25:00;100747.13;;;2.98;65.03
15263;BME280;7733;51.554;13.590;2023-04-07T04:27:27;100746.16;;;2.93;65.55
15263;BME280;7733;51.554;13.590;2023-04-07T04:29:53;100743.06;;;3.09;64.21
15263;BME280;7733;51.554;13.590;2023-04-07T04:32:19;100741.00;;;2.94;65.27
15263;BME280;7733;51.554;13.590;2023-04-07T04:34:45;100738.84;;;3.14;64.73
15263;BME280;7733;51.554;13.590;2023-04-07T04:37:11;100749.03;;;2.67;66.62
15263;BME280;7733;51.554;13.590;2023-04-07T04:39:37;100743.63;;;2.96;65.64
15263;BME280;7733;51.554;13.590;2023-04-07T04:42:05;100745.84;;;3.18;64.11
15263;BME280;7733;51.554;13.590;2023-04-07T04:44:30;100746.97;;;3.29;63.49
15263;BME280;7733;51.554;13.590;2023-04-07T04:46:56;100745.56;;;3.04;65.42
15263;BME280;7733;51.554;13.590;2023-04-07T04:49:22;100749.06;;;3.07;65.22
15263;BME280;7733;51.554;13.590;2023-04-07T04:51:48;100747.22;;;3.01;65.62
15263;BME280;7733;51.554;13.590;2023-04-07T04:54:14;100752.66;;;3.13;65.00
15263;BME280;7733;51.554;13.590;2023-04-07T04:56:40;100746.13;;;3.30;63.94
15263;BME280;7733;51.554;13.590;2023-04-07T04:59:07;100740.94;;;3.30;63.52
15263;BME280;7733;51.554;13.590;2023-04-07T05:01:33;100743.34;;;3.21;64.35
15263;BME280;7733;51.554;13.590;2023-04-07T05:03:58;100745.09;;;3.22;64.94
15263;BME280;7733;51.554;13.590;2023-04-07T05:06:25;100745.84;;;3.18;64.65
15263;BME280;7733;51.554;13.590;2023-04-07T05:08:52;100741.53;;;3.19;65.11
15263;BME280;7733;51.554;13.590;2023-04-07T05:11:18;100744.09;;;3.17;64.64
15263;BME280;7733;51.554;13.590;2023-04-07T05:13:44;100734.59;;;3.16;65.95
15263;BME280;7733;51.554;13.590;2023-04-07T05:16:09;100744.53;;;2.98;66.02
15263;BME280;7733;51.554;13.590;2023-04-07T05:18:35;100744.84;;;2.72;67.39
15263;BME280;7733;51.554;13.590;2023-04-07T05:21:01;100746.69;;;2.42;69.18
15263;BME280;7733;51.554;13.590;2023-04-07T05:23:27;100745.50;;;2.64;69.16
15263;BME280;7733;51.554;13.590;2023-04-07T05:25:53;100750.22;;;2.46;69.68
15263;BME280;7733;51.554;13.590;2023-04-07T05:28:18;100750.81;;;2.70;69.03
15263;BME280;7733;51.554;13.590;2023-04-07T05:30:44;100744.56;;;2.60;68.80
15263;BME280;7733;51.554;13.590;2023-04-07T05:33:10;100742.50;;;2.47;70.53
15263;BME280;7733;51.554;13.590;2023-04-07T05:35:36;100744.88;;;2.39;71.71
15263;BME280;7733;51.554;13.590;2023-04-07T05:38:02;100736.31;;;2.40;71.38
15263;BME280;7733;51.554;13.590;2023-04-07T05:40:28;100747.88;;;2.56;70.85
15263;BME280;7733;51.554;13.590;2023-04-07T05:42:55;100756.13;;;2.76;69.61
15263;BME280;7733;51.554;13.590;2023-04-07T05:45:21;100749.66;;;2.95;69.80
15263;BME280;7733;51.554;13.590;2023-04-07T05:47:46;100745.88;;;2.43;71.79
15263;BME280;7733;51.554;13.590;2023-04-07T05:50:16;100746.94;;;2.89;70.23
15263;BME280;7733;51.554;13.590;2023-04-07T05:52:42;100748.41;;;2.78;72.18
15263;BME280;7733;51.554;13.590;2023-04-07T05:55:08;100744.75;;;3.48;67.98
15263;BME280;7733;51.554;13.590;2023-04-07T05:57:33;100743.19;;;3.56;67.76
15263;BME280;7733;51.554;13.590;2023-04-07T06:00:00;100738.78;;;3.52;68.41
15263;BME280;7733;51.554;13.590;2023-04-07T06:02:26;100746.63;;;3.14;70.19
15263;BME280;7733;51.554;13.590;2023-04-07T06:04:51;100741.22;;;3.43;70.98
15263;BME280;7733;51.554;13.590;2023-04-07T06:07:17;100750.56;;;3.80;68.88
15263;BME280;7733;51.554;13.590;2023-04-07T06:09:43;100745.88;;;4.04;67.46
15263;BME280;7733;51.554;13.590;2023-04-07T06:12:08;100744.47;;;4.23;67.59
15263;BME280;7733;51.554;13.590;2023-04-07T06:14:37;100745.59;;;4.40;66.44
15263;BME280;7733;51.554;13.590;2023-04-07T06:17:03;100743.00;;;4.40;67.43
15263;BME280;7733;51.554;13.590;2023-04-07T06:19:29;100740.78;;;4.12;70.92
15263;BME280;7733;51.554;13.590;2023-04-07T06:21:54;100746.63;;;4.48;69.50
15263;BME280;7733;51.554;13.590;2023-04-07T06:24:20;100741.97;;;4.82;68.51
15263;BME280;7733;51.554;13.590;2023-04-07T06:26:50;100733.69;;;5.10;67.38
15263;BME280;7733;51.554;13.590;2023-04-07T06:29:16;100738.06;;;5.13;67.52
15263;BME280;7733;51.554;13.590;2023-04-07T06:31:42;100744.91;;;5.06;68.29
15263;BME280;7733;51.554;13.590;2023-04-07T06:34:08;100731.59;;;4.85;70.86
15263;BME280;7733;51.554;13.590;2023-04-07T06:36:33;100732.19;;;5.28;68.59
15263;BME280;7733;51.554;13.590;2023-04-07T06:39:00;100728.84;;;5.38;67.85
15263;BME280;7733;51.554;13.590;2023-04-07T06:41:26;100725.75;;;5.69;65.68
15263;BME280;7733;51.554;13.590;2023-04-07T06:43:51;100736.38;;;5.88;65.04
15263;BME280;7733;51.554;13.590;2023-04-07T06:46:18;100732.09;;;5.91;66.35
15263;BME280;7733;51.554;13.590;2023-04-07T06:48:44;100732.38;;;6.20;64.63
15263;BME280;7733;51.554;13.590;2023-04-07T06:51:11;100735.03;;;6.23;66.24
15263;BME280;7733;51.554;13.590;2023-04-07T06:53:37;100731.78;;;6.49;64.75
15263;BME280;7733;51.554;13.590;2023-04-07T06:56:08;100727.31;;;6.38;64.56
15263;BME280;7733;51.554;13.590;2023-04-07T06:58:35;100730.06;;;6.51;64.97
15263;BME280;7733;51.554;13.590;2023-04-07T07:01:02;100720.75;;;6.83;63.16
15263;BME280;7733;51.554;13.590;2023-04-07T07:03:29;100724.34;;;7.07;61.90
15263;BME280;7733;51.554;13.590;2023-04-07T07:05:57;100724.34;;;7.07;62.82
15263;BME280;7733;51.554;13.590;2023-04-07T07:08:27;100720.91;;;7.17;62.82
15263;BME280;7733;51.554;13.590;2023-04-07T07:10:53;100723.59;;;7.29;62.17
15263;BME280;7733;51.554;13.590;2023-04-07T07:13:24;100721.06;;;7.49;62.07
15263;BME280;7733;51.554;13.590;2023-04-07T07:15:50;100715.88;;;7.58;61.74
15263;BME280;7733;51.554;13.590;2023-04-07T07:18:17;100725.44;;;7.59;60.25
15263;BME280;7733;51.554;13.590;2023-04-07T07:20:43;100722.94;;;7.85;58.99
15263;BME280;7733;51.554;13.590;2023-04-07T07:23:09;100729.91;;;7.95;59.37
15263;BME280;7733;51.554;13.590;2023-04-07T07:25:35;100712.53;;;8.12;58.99
15263;BME280;7733;51.554;13.590;2023-04-07T07:28:01;100718.66;;;8.27;58.84
15263;BME280;7733;51.554;13.590;2023-04-07T07:30:27;100721.25;;;8.23;58.92
15263;BME280;7733;51.554;13.590;2023-04-07T07:32:53;100717.78;;;8.32;59.43
15263;BME280;7733;51.554;13.590;2023-04-07T07:35:20;100722.16;;;8.65;57.87
15263;BME280;7733;51.554;13.590;2023-04-07T07:37:46;100726.53;;;8.66;55.92
15263;BME280;7733;51.554;13.590;2023-04-07T07:40:13;100727.38;;;8.68;52.06
15263;BME280;7733;51.554;13.590;2023-04-07T07:42:40;100725.63;;;8.79;51.47
15263;BME280;7733;51.554;13.590;2023-04-07T07:45:06;100732.59;;;8.85;50.85
15263;BME280;7733;51.554;13.590;2023-04-07T07:47:32;100732.59;;;8.87;49.99
15263;BME280;7733;51.554;13.590;2023-04-07T07:49:58;100736.09;;;8.76;48.40
15263;BME280;7733;51.554;13.590;2023-04-07T07:52:23;100744.81;;;8.78;48.80
15263;BME280;7733;51.554;13.590;2023-04-07T07:54:50;100743.06;;;8.83;48.02
15263;BME280;7733;51.554;13.590;2023-04-07T07:57:16;100747.41;;;9.03;48.20
15263;BME280;7733;51.554;13.590;2023-04-07T07:59:42;100743.03;;;8.93;47.08
15263;BME280;7733;51.554;13.590;2023-04-07T08:02:08;100750.03;;;8.89;46.63
15263;BME280;7733;51.554;13.590;2023-04-07T08:04:36;100756.16;;;8.82;47.06
15263;BME280;7733;51.554;13.590;2023-04-07T08:07:02;100751.78;;;8.92;47.53
15263;BME280;7733;51.554;13.590;2023-04-07T08:09:28;100753.50;;;8.99;46.39
15263;BME280;7733;51.554;13.590;2023-04-07T08:11:54;100755.22;;;9.15;47.29
15263;BME280;7733;51.554;13.590;2023-04-07T08:14:20;100746.53;;;9.05;47.05
15263;BME280;7733;51.554;13.590;2023-04-07T08:16:46;100755.22;;;9.21;47.04
15263;BME280;7733;51.554;13.590;2023-04-07T08:19:12;100749.13;;;9.07;47.20
15263;BME280;7733;51.554;13.590;2023-04-07T08:21:38;100752.50;;;9.41;46.82
15263;BME280;7733;51.554;13.590;2023-04-07T08:24:06;100745.47;;;9.60;46.35
15263;BME280;7733;51.554;13.590;2023-04-07T08:26:32;100746.31;;;9.69;46.58
15263;BME280;7733;51.554;13.590;2023-04-07T08:28:57;100750.69;;;9.67;46.36
15263;BME280;7733;51.554;13.590;2023-04-07T08:31:23;100751.56;;;9.60;46.10
15263;BME280;7733;51.554;13.590;2023-04-07T08:33:49;100751.44;;;9.92;45.97
15263;BME280;7733;51.554;13.590;2023-04-07T08:36:19;100752.34;;;9.85;46.08
15263;BME280;7733;51.554;13.590;2023-04-07T08:38:45;100751.47;;;9.80;45.65
15263;BME280;7733;51.554;13.590;2023-04-07T08:41:37;100760.22;;;9.76;45.93
15263;BME280;7733;51.554;13.590;2023-04-07T08:44:02;100759.13;;;10.17;46.42
15263;BME280;7733;51.554;13.590;2023-04-07T08:46:29;100749.44;;;10.34;45.78
15263;BME280;7733;51.554;13.590;2023-04-07T08:48:56;100754.00;;;10.03;45.25
15263;BME280;7733;51.554;13.590;2023-04-07T08:51:32;100751.28;;;10.23;45.56
15263;BME280;7733;51.554;13.590;2023-04-07T08:54:11;100758.38;;;9.96;46.28
15263;BME280;7733;51.554;13.590;2023-04-07T08:56:39;100750.31;;;10.33;46.61
15263;BME280;7733;51.554;13.590;2023-04-07T08:59:07;100745.81;;;10.50;46.56
15263;BME280;7733;51.554;13.590;2023-04-07T09:01:35;100755.50;;;10.44;46.43
15263;BME280;7733;51.554;13.590;2023-04-07T09:04:04;100756.63;;;9.95;47.65
15263;BME280;7733;51.554;13.590;2023-04-07T09:06:33;100758.28;;;10.15;47.27
15263;BME280;7733;51.554;13.590;2023-04-07T09:09:00;100749.34;;;10.48;47.42
15263;BME280;7733;51.554;13.590;2023-04-07T09:11:27;100750.09;;;10.63;47.10
15263;BME280;7733;51.554;13.590;2023-04-07T09:13:55;100750.97;;;10.61;46.61
15263;BME280;7733;51.554;13.590;2023-04-07T09:16:21;100747.28;;;10.86;46.28
15263;BME280;7733;51.554;13.590;2023-04-07T09:18:48;100744.50;;;10.98;46.48
15263;BME280;7733;51.554;13.590;2023-04-07T09:21:14;100748.34;;;10.64;46.02
15263;BME280;7733;51.554;13.590;2023-04-07T09:23:41;100747.19;;;10.94;46.92
15263;BME280;7733;51.554;13.590;2023-04-07T09:26:27;100749.06;;;10.81;46.03
15263;BME280;7733;51.554;13.590;2023-04-07T09:28:59;100747.16;;;10.95;46.34
15263;BME280;7733;51.554;13.590;2023-04-07T09:31:50;100743.53;;;11.10;46.39
15263;BME280;7733;51.554;13.590;2023-04-07T09:34:33;100739.16;;;11.11;46.07
15263;BME280;7733;51.554;13.590;2023-04-07T09:37:00;100737.88;;;11.47;45.14
15263;BME280;7733;51.554;13.590;2023-04-07T09:39:27;100740.53;;;11.41;46.08
15263;BME280;7733;51.554;13.590;2023-04-07T09:41:52;100736.13;;;11.46;46.03
15263;BME280;7733;51.554;13.590;2023-04-07T09:44:22;100732.66;;;11.44;47.14
15263;BME280;7733;51.554;13.590;2023-04-07T09:46:55;100740.25;;;10.87;48.55
15263;BME280;7733;51.554;13.590;2023-04-07T09:49:22;100734.13;;;10.88;47.58
15263;BME280;7733;51.554;13.590;2023-04-07T09:52:00;100728.44;;;11.29;45.77
15263;BME280;7733;51.554;13.590;2023-04-07T09:54:34;100736.19;;;11.40;46.05
15263;BME280;7733;51.554;13.590;2023-04-07T09:57:03;100729.84;;;11.57;45.14
15263;BME280;7733;51.554;13.590;2023-04-07T09:59:32;100729.78;;;11.64;45.14
15263;BME280;7733;51.554;13.590;2023-04-07T10:01:59;100723.88;;;11.45;44.23
15263;BME280;7733;51.554;13.590;2023-04-07T10:04:26;100727.38;;;11.45;45.30
15263;BME280;7733;51.554;13.590;2023-04-07T10:06:54;100727.22;;;11.56;44.89
15263;BME280;7733;51.554;13.590;2023-04-07T10:09:23;100725.53;;;11.52;43.49
15263;BME280;7733;51.554;13.590;2023-04-07T10:11:51;100731.31;;;11.83;42.93
15263;BME280;7733;51.554;13.590;2023-04-07T10:14:19;100734.09;;;11.68;42.51
15263;BME280;7733;51.554;13.590;2023-04-07T10:16:48;100727.88;;;11.75;41.11
15263;BME280;7733;51.554;13.590;2023-04-07T10:19:15;100730.69;;;11.59;41.76
15263;BME280;7733;51.554;13.590;2023-04-07T10:21:42;100725.88;;;11.94;42.02
15263;BME280;7733;51.554;13.590;2023-04-07T10:26:57;100710.63;;;12.17;40.97
15263;BME280;7733;51.554;13.590;2023-04-07T10:29:24;100716.78;;;12.16;40.75
15263;BME280;7733;51.554;13.590;2023-04-07T10:31:51;100726.81;;;11.90;40.89
15263;BME280;7733;51.554;13.590;2023-04-07T10:37:13;100720.06;;;12.32;40.04
15263;BME280;7733;51.554;13.590;2023-04-07T10:39:42;100719.69;;;11.98;40.20
15263;BME280;7733;51.554;13.590;2023-04-07T10:45:06;100727.06;;;12.33;39.50
15263;BME280;7733;51.554;13.590;2023-04-07T10:47:32;100723.53;;;12.34;39.76
15263;BME280;7733;51.554;13.590;2023-04-07T10:50:22;100721.91;;;12.27;40.12
15263;BME280;7733;51.554;13.590;2023-04-07T10:53:07;100726.28;;;12.26;39.72
15263;BME280;7733;51.554;13.590;2023-04-07T10:55:44;100717.97;;;12.52;39.75
15263;BME280;7733;51.554;13.590;2023-04-07T10:58:32;100721.13;;;12.22;39.19
15263;BME280;7733;51.554;13.590;2023-04-07T11:03:53;100717.09;;;12.52;38.56
15263;BME280;7733;51.554;13.590;2023-04-07T11:06:19;100709.28;;;12.47;39.18
15263;BME280;7733;51.554;13.590;2023-04-07T11:08:47;100711.31;;;12.82;38.56
15263;BME280;7733;51.554;13.590;2023-04-07T11:11:20;100716.06;;;12.06;41.00
15263;BME280;7733;51.554;13.590;2023-04-07T11:13:59;100723.13;;;12.01;41.93
15263;BME280;7733;51.554;13.590;2023-04-07T11:16:36;100718.91;;;12.49;41.07
15263;BME280;7733;51.554;13.590;2023-04-07T11:19:02;100709.53;;;12.84;38.63
15263;BME280;7733;51.554;13.590;2023-04-07T11:21:28;100710.03;;;12.55;38.37
15263;BME280;7733;51.554;13.590;2023-04-07T11:23:54;100714.00;;;12.27;38.98
15263;BME280;7733;51.554;13.590;2023-04-07T11:26:20;100710.81;;;12.62;38.33
15263;BME280;7733;51.554;13.590;2023-04-07T11:28:54;100713.63;;;12.99;37.99
15263;BME280;7733;51.554;13.590;2023-04-07T11:31:29;100703.94;;;13.02;37.51
15263;BME280;7733;51.554;13.590;2023-04-07T11:34:01;100706.41;;;12.61;37.65
15263;BME280;7733;51.554;13.590;2023-04-07T11:36:34;100710.91;;;13.05;37.51
15263;BME280;7733;51.554;13.590;2023-04-07T11:39:01;100713.56;;;12.53;37.02
15263;BME280;7733;51.554;13.590;2023-04-07T11:41:30;100705.28;;;12.75;37.47
15263;BME280;7733;51.554;13.590;2023-04-07T11:44:08;100713.34;;;12.12;39.16
15263;BME280;7733;51.554;13.590;2023-04-07T11:46:34;100703.59;;;12.19;38.56
15263;BME280;7733;51.554;13.590;2023-04-07T11:49:13;100701.53;;;12.89;37.01
15263;BME280;7733;51.554;13.590;2023-04-07T11:51:42;100693.41;;;13.47;36.93
15263;BME280;7733;51.554;13.590;2023-04-07T11:54:09;100709.19;;;13.02;39.06
15263;BME280;7733;51.554;13.590;2023-04-07T11:56:44;100698.06;;;13.33;37.69
15263;BME280;7733;51.554;13.590;2023-04-07T11:59:24;100699.81;;;13.34;36.87
15263;BME280;7733;51.554;13.590;2023-04-07T12:01:52;100712.28;;;13.26;36.69
15263;BME280;7733;51.554;13.590;2023-04-07T12:04:18;100700.88;;;13.25;37.02
15263;BME280;7733;51.554;13.590;2023-04-07T12:06:48;100705.38;;;13.19;36.96
15263;BME280;7733;51.554;13.590;2023-04-07T12:09:40;100700.00;;;13.25;36.46
15263;BME280;7733;51.554;13.590;2023-04-07T12:12:07;100705.28;;;12.75;37.53
15263;BME280;7733;51.554;13.590;2023-04-07T12:14:33;100701.72;;;13.27;37.04
15263;BME280;7733;51.554;13.590;2023-04-07T12:16:59;100710.38;;;12.86;37.88
15263;BME280;7733;51.554;13.590;2023-04-07T12:19:29;100705.59;;;13.06;37.49
15263;BME280;7733;51.554;13.590;2023-04-07T12:21:57;100703.94;;;13.01;36.68
15263;BME280;7733;51.554;13.590;2023-04-07T12:24:23;100706.22;;;13.22;37.50
15263;BME280;7733;51.554;13.590;2023-04-07T12:26:49;100705.69;;;13.00;38.36
15263;BME280;7733;51.554;13.590;2023-04-07T12:29:17;100702.78;;;13.16;38.64
15263;BME280;7733;51.554;13.590;2023-04-07T12:31:44;100699.13;;;13.26;38.37
15263;BME280;7733;51.554;13.590;2023-04-07T12:34:10;100706.13;;;12.77;39.43
15263;BME280;7733;51.554;13.590;2023-04-07T12:36:36;100703.16;;;12.96;40.63
15263;BME280;7733;51.554;13.590;2023-04-07T12:39:02;100704.22;;;12.87;40.66
15263;BME280;7733;51.554;13.590;2023-04-07T12:41:28;100709.19;;;13.01;40.32
15263;BME280;7733;51.554;13.590;2023-04-07T12:43:53;100707.63;;;12.92;41.05
15263;BME280;7733;51.554;13.590;2023-04-07T12:46:19;100712.16;;;12.84;40.60
15263;BME280;7733;51.554;13.590;2023-04-07T12:48:46;100713.38;;;13.13;40.31
15263;BME280;7733;51.554;13.590;2023-04-07T12:51:12;100711.28;;;12.85;40.25
15263;BME280;7733;51.554;13.590;2023-04-07T12:53:38;100712.81;;;12.95;41.06
15263;BME280;7733;51.554;13.590;2023-04-07T12:56:04;100711.09;;;12.94;40.17
15263;BME280;7733;51.554;13.590;2023-04-07T12:58:30;100710.50;;;12.78;40.12
15263;BME280;7733;51.554;13.590;2023-04-07T13:00:56;100711.09;;;12.94;40.32
15263;BME280;7733;51.554;13.590;2023-04-07T13:03:23;100716.75;;;13.21;40.54
15263;BME280;7733;51.554;13.590;2023-04-07T13:05:48;100718.63;;;12.66;40.97
15263;BME280;7733;51.554;13.590;2023-04-07T13:08:14;100710.66;;;12.69;41.57
15263;BME280;7733;51.554;13.590;2023-04-07T13:10:40;100718.25;;;12.35;42.77
15263;BME280;7733;51.554;13.590;2023-04-07T13:13:06;100710.94;;;12.53;41.05
15263;BME280;7733;51.554;13.590;2023-04-07T13:15:32;100705.06;;;12.88;40.60
15263;BME280;7733;51.554;13.590;2023-04-07T13:17:58;100703.56;;;12.73;40.64
15263;BME280;7733;51.554;13.590;2023-04-07T13:20:24;100703.44;;;12.80;40.63
15263;BME280;7733;51.554;13.590;2023-04-07T13:22:53;100710.41;;;12.32;42.21